Time;durP1;ratioP1;P1;durP2;ratioP2;P2;SDS_P1;SDS_P2;PMS_P1;PMS_P2;Temp;Humidity;BMP_temperature;BMP_pressure;BME280_temperature;BME280_humidity;BME280_pressure;Samples;Min_cycle;Max_cycle;Signal;HPM_P1;HPM_P2
2023/08/01 00:02:17;;;;;;;13.07;6.53;;;;;;;;;;4974320;28;20589;-82
2023/08/01 00:04:48;;;;;;;13.30;6.03;;;;;;;;;;4974499;28;20518;-83
2023/08/01 00:07:19;;;;;;;16.70;5.68;;;;;;;;;;4974918;28;20047;-83
2023/08/01 00:09:50;;;;;;;15.77;6.97;;;;;;;;;;4973814;28;20051;-83
2023/08/01 00:12:21;;;;;;;13.65;6.53;;;;;;;;;;4956646;28;20050;-83
2023/08/01 00:14:56;;;;;;;19.05;7.05;;;;;;;;;;4957510;28;20042;-82
2023/08/01 00:17:26;;;;;;;15.82;6.78;;;;;;;;;;4974392;28;20042;-82
2023/08/01 00:19:56;;;;;;;15.50;6.85;;;;;;;;;;4974097;28;20413;-82
2023/08/01 00:22:27;;;;;;;15.88;6.47;;;;;;;;;;4956642;28;20046;-83
2023/08/01 00:24:58;;;;;;;14.88;7.20;;;;;;;;;;4956454;28;20513;-82
2023/08/01 00:27:32;;;;;;;18.13;8.15;;;;;;;;;;4974435;28;20513;-82
2023/08/01 00:30:10;;;;;;;12.40;6.70;;;;;;;;;;4973492;28;20051;-82
2023/08/01 00:32:43;;;;;;;15.43;6.93;;;;;;;;;;4956276;28;20058;-81
2023/08/01 00:35:16;;;;;;;13.43;6.95;;;;;;;;;;4974455;28;20046;-81
2023/08/01 00:37:49;;;;;;;;;;;;;;;;;;4974970;28;20524;-81
2023/08/01 00:40:20;;;;;;;16.23;6.82;;;;;;;;;;4956933;28;19929;-81
2023/08/01 00:42:55;;;;;;;13.25;6.75;;;;;;;;;;4974037;28;20050;-81
2023/08/01 00:45:33;;;;;;;16.17;6.90;;;;;;;;;;4955708;28;20055;-82
2023/08/01 00:48:05;;;;;;;13.95;7.45;;;;;;;;;;4973683;28;20062;-81
2023/08/01 00:50:36;;;;;;;23.05;7.22;;;;;;;;;;4956811;28;20051;-81
2023/08/01 00:53:07;;;;;;;16.45;6.82;;;;;;;;;;4960840;28;20043;-81
2023/08/01 00:55:39;;;;;;;;;;;;;;;;;;4952700;29;20051;-81
2023/08/01 00:58:11;;;;;;;15.05;6.68;;;;;;;;;;4952910;29;20356;-82
2023/08/01 01:00:42;;;;;;;15.90;6.95;;;;;;;;;;4954420;29;20494;-83
2023/08/01 01:03:14;;;;;;;15.38;6.95;;;;;;;;;;4937874;28;20055;-82
2023/08/01 01:05:58;;;;;;;14.25;6.72;;;;;;;;;;4952298;29;20078;-81
2023/08/01 01:08:30;;;;;;;12.25;6.40;;;;;;;;;;4937440;29;20054;-83
2023/08/01 01:11:01;;;;;;;15.60;7.03;;;;;;;;;;4954210;29;20058;-83
2023/08/01 01:13:31;;;;;;;16.13;7.38;;;;;;;;;;4968431;28;20050;-82
2023/08/01 01:16:05;;;;;;;13.35;6.68;;;;;;;;;;4953789;29;20039;-83
2023/08/01 01:18:35;;;;;;;14.32;6.93;;;;;;;;;;4936783;29;20055;-84
2023/08/01 01:21:06;;;;;;;15.18;7.22;;;;;;;;;;4936198;29;20054;-83
2023/08/01 01:23:37;;;;;;;17.27;6.60;;;;;;;;;;4960204;28;20081;-82
2023/08/01 01:26:09;;;;;;;14.98;7.38;;;;;;;;;;4972751;28;20055;-82
2023/08/01 01:28:42;;;;;;;16.30;6.65;;;;;;;;;;4968542;28;20050;-82
2023/08/01 01:31:14;;;;;;;17.25;7.85;;;;;;;;;;4954881;28;20131;-83
2023/08/01 01:33:44;;;;;;;19.05;7.32;;;;;;;;;;4939419;28;20047;-83
2023/08/01 01:36:16;;;;;;;16.65;7.93;;;;;;;;;;4955675;28;20406;-82
2023/08/01 01:38:51;;;;;;;18.17;7.50;;;;;;;;;;4954003;28;20058;-83
2023/08/01 01:41:22;;;;;;;14.15;7.43;;;;;;;;;;4970416;28;20515;-83
2023/08/01 01:43:52;;;;;;;16.42;7.45;;;;;;;;;;4970213;28;20425;-82
2023/08/01 01:46:24;;;;;;;13.98;7.03;;;;;;;;;;4958043;28;20054;-83
2023/08/01 01:48:57;;;;;;;14.35;7.22;;;;;;;;;;4970293;28;20046;-82
2023/08/01 01:51:31;;;;;;;18.08;7.68;;;;;;;;;;4972082;28;20433;-83
2023/08/01 01:54:02;;;;;;;16.80;7.65;;;;;;;;;;4971556;28;20051;-82
2023/08/01 01:56:35;;;;;;;14.23;7.40;;;;;;;;;;4972355;28;20047;-81
2023/08/01 01:59:07;;;;;;;13.63;6.80;;;;;;;;;;4954766;28;20511;-82
2023/08/01 02:01:39;;;;;;;14.90;7.57;;;;;;;;;;4969995;28;20047;-82
2023/08/01 02:04:09;;;;;;;12.15;6.43;;;;;;;;;;4953280;28;20051;-84
2023/08/01 02:06:42;;;;;;;17.63;6.85;;;;;;;;;;4951740;28;20493;-83
2023/08/01 02:09:12;;;;;;;13.82;6.88;;;;;;;;;;4953038;28;20047;-84
2023/08/01 02:11:45;;;;;;;19.13;8.82;;;;;;;;;;4968870;28;20395;-82
2023/08/01 02:14:15;;;;;;;20.15;9.10;;;;;;;;;;4959294;28;20059;-81
2023/08/01 02:16:46;;;;;;;19.40;8.73;;;;;;;;;;4935355;29;20050;-81
2023/08/01 02:19:18;;;;;;;14.80;7.57;;;;;;;;;;4969858;28;20054;-82
2023/08/01 02:21:52;;;;;;;17.27;8.20;;;;;;;;;;4947817;28;20054;-81
2023/08/01 02:24:22;;;;;;;17.02;8.05;;;;;;;;;;4953815;28;20055;-83
2023/08/01 02:26:54;;;;;;;15.25;7.18;;;;;;;;;;4955335;28;20415;-81
2023/08/01 02:29:25;;;;;;;15.02;7.72;;;;;;;;;;4973286;28;20054;-83
2023/08/01 02:31:56;;;;;;;14.40;7.93;;;;;;;;;;4950797;28;20413;-82
2023/08/01 02:34:26;;;;;;;17.05;7.43;;;;;;;;;;4958196;28;20058;-82
2023/08/01 02:36:57;;;;;;;17.33;7.53;;;;;;;;;;4942396;29;20047;-82
2023/08/01 02:39:29;;;;;;;17.30;7.20;;;;;;;;;;4968069;28;20058;-82
2023/08/01 02:41:59;;;;;;;15.60;6.88;;;;;;;;;;4960260;28;20050;-82
2023/08/01 02:44:29;;;;;;;12.38;6.80;;;;;;;;;;4977776;28;20508;-81
2023/08/01 02:47:02;;;;;;;13.93;7.00;;;;;;;;;;4976901;28;20057;-82
2023/08/01 02:49:35;;;;;;;18.35;7.47;;;;;;;;;;4975682;28;20054;-82
2023/08/01 02:52:06;;;;;;;17.33;8.27;;;;;;;;;;4973153;28;20073;-82
2023/08/01 02:54:36;;;;;;;15.20;7.20;;;;;;;;;;4975947;28;20043;-82
2023/08/01 02:57:08;;;;;;;14.65;7.07;;;;;;;;;;4977564;28;20050;-82
2023/08/01 02:59:40;;;;;;;16.58;6.97;;;;;;;;;;4959992;28;20047;-82
2023/08/01 03:02:13;;;;;;;15.70;7.40;;;;;;;;;;4960743;28;20043;-82
2023/08/01 03:04:44;;;;;;;15.30;7.43;;;;;;;;;;4977283;28;20051;-81
2023/08/01 03:07:15;;;;;;;17.70;7.93;;;;;;;;;;4975103;28;20501;-81
2023/08/01 03:09:47;;;;;;;;;;;;;;;;;;4959843;28;20051;-82
2023/08/01 03:12:18;;;;;;;17.38;7.97;;;;;;;;;;4958816;28;20007;-82
2023/08/01 03:14:49;;;;;;;18.27;8.85;;;;;;;;;;4977391;28;20473;-82
2023/08/01 03:17:19;;;;;;;17.25;8.13;;;;;;;;;;4959251;28;20054;-81
2023/08/01 03:19:51;;;;;;;16.02;7.70;;;;;;;;;;4975466;28;20047;-82
2023/08/01 03:22:25;;;;;;;;;;;;;;;;;;4944721;28;20062;-82
2023/08/01 03:24:56;;;;;;;14.23;7.80;;;;;;;;;;4959499;28;19922;-81
2023/08/01 03:27:26;;;;;;;16.30;7.95;;;;;;;;;;4960119;28;20046;-81
2023/08/01 03:29:56;;;;;;;13.68;7.10;;;;;;;;;;4959523;28;20110;-83
2023/08/01 03:32:28;;;;;;;14.43;8.23;;;;;;;;;;4977174;28;20115;-83
2023/08/01 03:35:00;;;;;;;19.10;8.25;;;;;;;;;;4976536;28;20057;-81
2023/08/01 03:37:34;;;;;;;20.77;8.60;;;;;;;;;;4975576;28;20493;-82
2023/08/01 03:40:08;;;;;;;17.67;8.07;;;;;;;;;;4959440;28;20469;-81
2023/08/01 03:42:40;;;;;;;14.65;7.80;;;;;;;;;;4977315;28;20046;-81
2023/08/01 03:45:11;;;;;;;18.85;7.70;;;;;;;;;;4976829;28;20045;-81
2023/08/01 03:47:41;;;;;;;19.25;8.00;;;;;;;;;;4959865;28;20053;-81
2023/08/01 03:50:13;;;;;;;18.23;8.05;;;;;;;;;;4976860;28;20043;-81
2023/08/01 03:52:44;;;;;;;19.35;8.13;;;;;;;;;;4976564;28;20043;-81
2023/08/01 03:55:19;;;;;;;14.23;7.55;;;;;;;;;;4976841;28;20410;-80
2023/08/01 08:00:52;;;;;;;20.50;7.50;;;;;;;;;;4976698;28;20058;-80
2023/08/01 08:03:25;;;;;;;15.40;7.47;;;;;;;;;;4976737;28;20051;-80
2023/08/01 08:05:54;;;;;;;14.43;6.43;;;;;;;;;;4958504;28;20051;-80
2023/08/01 08:08:26;;;;;;;17.55;7.03;;;;;;;;;;4974878;28;20050;-80
2023/08/01 08:10:59;;;;;;;13.15;6.43;;;;;;;;;;4974515;28;20051;-80
2023/08/01 08:13:33;;;;;;;12.98;6.22;;;;;;;;;;4976685;28;20054;-81
2023/08/01 08:16:04;;;;;;;12.65;6.35;;;;;;;;;;4976046;28;20405;-81
2023/08/01 08:18:36;;;;;;;15.80;6.57;;;;;;;;;;4958071;28;20055;-80
2023/08/01 08:21:07;;;;;;;14.88;6.65;;;;;;;;;;4974245;28;20071;-80
2023/08/01 08:23:40;;;;;;;13.93;6.90;;;;;;;;;;4958149;28;20054;-80
2023/08/01 08:26:11;;;;;;;13.68;6.82;;;;;;;;;;4975729;28;20065;-80
2023/08/01 08:28:42;;;;;;;16.00;7.28;;;;;;;;;;4975080;28;20509;-80
2023/08/01 08:31:14;;;;;;;14.10;6.72;;;;;;;;;;4975356;28;20097;-80
2023/08/01 08:33:47;;;;;;;15.70;6.80;;;;;;;;;;4973723;28;20051;-81
2023/08/01 08:36:18;;;;;;;17.02;6.03;;;;;;;;;;4973889;28;20078;-81
2023/08/01 08:38:50;;;;;;;13.43;6.78;;;;;;;;;;4975943;28;20043;-80
2023/08/01 08:41:26;;;;;;;14.32;6.90;;;;;;;;;;4976152;28;20042;-80
2023/08/01 08:43:58;;;;;;;12.63;6.53;;;;;;;;;;4973857;28;20043;-80
2023/08/01 08:46:37;;;;;;;11.32;6.60;;;;;;;;;;4957713;28;20050;-81
2023/08/01 08:49:10;;;;;;;15.60;7.13;;;;;;;;;;4975766;28;20066;-80
2023/08/01 08:51:45;;;;;;;16.58;7.28;;;;;;;;;;4976024;28;20035;-79
2023/08/01 08:54:17;;;;;;;15.13;6.53;;;;;;;;;;4976026;28;20047;-80
2023/08/01 08:56:51;;;;;;;12.32;6.43;;;;;;;;;;4975472;28;20383;-80
2023/08/01 08:59:27;;;;;;;12.45;5.85;;;;;;;;;;4957967;28;20063;-81
2023/08/01 09:02:01;;;;;;;12.30;5.65;;;;;;;;;;4975269;28;20065;-81
2023/08/01 09:04:33;;;;;;;14.20;6.03;;;;;;;;;;4975689;28;20047;-80
2023/08/01 09:07:08;;;;;;;16.17;6.53;;;;;;;;;;4975221;28;20066;-81
2023/08/01 09:09:38;;;;;;;14.02;6.25;;;;;;;;;;4957474;28;20050;-80
2023/08/01 09:12:10;;;;;;;13.45;7.07;;;;;;;;;;4941014;28;20085;-80
2023/08/01 09:14:43;;;;;;;12.75;5.95;;;;;;;;;;4975309;28;20504;-80
2023/08/01 09:17:16;;;;;;;14.52;6.13;;;;;;;;;;4956845;28;20051;-80
2023/08/01 09:19:47;;;;;;;17.10;6.90;;;;;;;;;;4957065;28;20058;-80
2023/08/01 09:22:18;;;;;;;12.63;6.35;;;;;;;;;;4941489;28;20057;-81
2023/08/01 09:24:57;;;;;;;13.50;6.15;;;;;;;;;;4975323;28;20051;-79
2023/08/01 09:27:48;;;;;;;11.85;6.10;;;;;;;;;;4975520;28;20047;-80
2023/08/01 09:30:57;;;;;;;16.83;7.43;;;;;;;;;;4959781;28;20521;-80
2023/08/01 09:33:39;;;;;;;14.68;6.45;;;;;;;;;;4941846;28;20513;-80
2023/08/01 09:36:11;;;;;;;17.77;7.20;;;;;;;;;;4957301;28;20058;-80
2023/08/01 09:38:41;;;;;;;15.60;7.13;;;;;;;;;;4974183;28;20540;-80
2023/08/01 09:41:18;;;;;;;15.23;7.20;;;;;;;;;;4975002;28;20105;-80
2023/08/01 09:43:51;;;;;;;18.80;6.65;;;;;;;;;;4974559;28;20042;-80
2023/08/01 09:46:23;;;;;;;14.82;6.60;;;;;;;;;;4973725;28;20397;-80
2023/08/01 09:49:06;;;;;;;15.75;6.65;;;;;;;;;;4972765;28;20054;-80
2023/08/01 09:51:48;;;;;;;15.93;6.63;;;;;;;;;;4958037;28;20047;-80
2023/08/01 09:54:22;;;;;;;17.23;6.80;;;;;;;;;;4974569;28;20051;-80
2023/08/01 09:56:56;;;;;;;13.65;6.80;;;;;;;;;;4974383;28;20385;-80
2023/08/01 09:59:31;;;;;;;13.52;6.57;;;;;;;;;;4974887;28;20054;-80
2023/08/01 10:02:14;;;;;;;17.08;6.93;;;;;;;;;;4974174;28;20477;-80
2023/08/01 10:04:46;;;;;;;23.02;8.07;;;;;;;;;;4973455;28;20382;-80
2023/08/01 10:07:25;;;;;;;17.58;7.25;;;;;;;;;;4957045;28;20054;-81
2023/08/01 10:09:58;;;;;;;17.20;7.18;;;;;;;;;;4975047;28;20051;-81
2023/08/01 10:12:28;;;;;;;;;;;;;;;;;;4969176;28;20039;-81
2023/08/01 10:15:01;;;;;;;16.83;7.40;;;;;;;;;;4941450;29;19922;-81
2023/08/01 10:17:39;;;;;;;16.40;7.72;;;;;;;;;;4958268;28;20073;-81
2023/08/01 10:20:10;;;;;;;15.98;7.63;;;;;;;;;;4973431;28;20046;-81
2023/08/01 10:22:44;;;;;;;18.13;7.03;;;;;;;;;;4973733;28;20509;-81
2023/08/01 10:25:16;;;;;;;12.60;5.97;;;;;;;;;;4974102;28;20055;-82
2023/08/01 10:28:08;;;;;;;14.65;6.35;;;;;;;;;;4957153;28;20528;-81
2023/08/01 10:30:41;;;;;;;11.73;6.10;;;;;;;;;;4957964;28;20054;-81
2023/08/01 10:33:12;;;;;;;13.73;5.85;;;;;;;;;;4976178;28;20046;-81
2023/08/01 10:35:46;;;;;;;13.35;6.40;;;;;;;;;;4973726;28;20123;-81
2023/08/01 10:38:17;;;;;;;15.40;7.25;;;;;;;;;;4973035;28;20047;-81
2023/08/01 10:40:49;;;;;;;16.73;7.18;;;;;;;;;;4973971;28;20058;-81
2023/08/01 10:43:24;;;;;;;18.38;8.95;;;;;;;;;;4972871;28;20474;-82
2023/08/01 10:46:04;;;;;;;23.25;10.00;;;;;;;;;;4956581;28;20062;-81
2023/08/01 10:48:40;;;;;;;23.67;11.13;;;;;;;;;;4974510;28;20046;-81
2023/08/01 10:51:13;;;;;;;27.58;11.00;;;;;;;;;;4974233;28;20043;-80
2023/08/01 10:53:43;;;;;;;21.02;9.43;;;;;;;;;;4959695;28;20054;-80
2023/08/01 10:56:20;;;;;;;20.92;9.88;;;;;;;;;;4961397;28;20482;-80
2023/08/01 10:58:53;;;;;;;20.38;9.30;;;;;;;;;;4977984;28;20049;-81
2023/08/01 11:01:23;;;;;;;18.63;9.75;;;;;;;;;;4977874;28;20046;-81
2023/08/01 11:03:57;;;;;;;23.27;9.65;;;;;;;;;;4977333;28;20058;-81
2023/08/01 11:06:29;;;;;;;23.10;10.02;;;;;;;;;;4978379;28;20404;-80
2023/08/01 11:09:01;;;;;;;21.23;8.60;;;;;;;;;;4964895;28;20039;-82
2023/08/01 11:11:31;;;;;;;19.92;9.15;;;;;;;;;;4958878;28;20042;-82
2023/08/01 11:14:03;;;;;;;21.40;9.98;;;;;;;;;;4958703;28;20043;-81
2023/08/01 11:16:33;;;;;;;27.40;11.05;;;;;;;;;;4957726;28;20059;-82
2023/08/01 11:19:06;;;;;;;25.52;11.27;;;;;;;;;;4954606;28;20518;-83
2023/08/01 11:21:37;;;;;;;19.55;9.45;;;;;;;;;;4963302;28;20046;-83
2023/08/01 11:24:07;;;;;;;23.25;9.77;;;;;;;;;;4975026;28;20042;-84
2023/08/01 11:26:42;;;;;;;21.23;9.55;;;;;;;;;;4959052;28;20497;-81
2023/08/01 11:29:20;;;;;;;19.30;10.05;;;;;;;;;;4959101;28;20050;-82
2023/08/01 11:31:55;;;;;;;26.77;9.65;;;;;;;;;;4976315;28;20051;-80
2023/08/01 11:34:28;;;;;;;22.25;10.40;;;;;;;;;;4976411;28;20047;-82
2023/08/01 11:37:02;;;;;;;21.48;9.23;;;;;;;;;;4973419;28;20104;-80
2023/08/01 11:39:35;;;;;;;22.50;9.73;;;;;;;;;;4958401;29;20055;-81
2023/08/01 11:42:07;;;;;;;24.90;9.90;;;;;;;;;;4956709;28;20042;-82
2023/08/01 11:44:38;;;;;;;20.55;9.73;;;;;;;;;;4976781;28;20047;-84
2023/08/01 11:47:15;;;;;;;20.67;10.10;;;;;;;;;;4959418;28;20050;-83
2023/08/01 11:49:51;;;;;;;21.67;10.52;;;;;;;;;;4976170;28;20054;-82
2023/08/01 11:52:32;;;;;;;19.48;10.55;;;;;;;;;;4957906;28;20057;-82
2023/08/01 11:55:03;;;;;;;24.10;12.13;;;;;;;;;;4974099;28;20517;-82
2023/08/01 11:57:34;;;;;;;23.70;12.50;;;;;;;;;;4956842;28;20421;-81
2023/08/01 12:00:07;;;;;;;18.52;11.60;;;;;;;;;;4956401;28;20054;-83
2023/08/01 12:02:39;;;;;;;20.05;12.35;;;;;;;;;;4971350;28;20413;-82
2023/08/01 12:05:22;;;;;;;24.05;13.02;;;;;;;;;;4968544;28;20047;-80
2023/08/01 12:08:09;;;;;;;22.70;13.20;;;;;;;;;;4969289;28;20035;-82
2023/08/01 12:10:45;;;;;;;24.77;14.80;;;;;;;;;;4938748;29;20047;-81
2023/08/01 12:13:22;;;;;;;22.80;13.20;;;;;;;;;;4969284;28;20043;-83
2023/08/01 12:15:56;;;;;;;25.00;13.45;;;;;;;;;;4974596;28;20077;-82
2023/08/01 12:18:30;;;;;;;22.23;12.93;;;;;;;;;;4952458;28;20046;-82
2023/08/01 12:21:05;;;;;;;22.85;12.52;;;;;;;;;;4973383;28;20465;-81
2023/08/01 12:23:36;;;;;;;25.65;13.48;;;;;;;;;;4972949;28;20045;-82
2023/08/01 12:26:08;;;;;;;23.05;12.60;;;;;;;;;;4968098;28;20043;-83
2023/08/01 12:28:39;;;;;;;22.20;11.48;;;;;;;;;;4971734;28;20047;-81
2023/08/01 12:31:10;;;;;;;19.33;11.65;;;;;;;;;;4967768;28;20516;-81
2023/08/01 12:33:41;;;;;;;30.77;11.98;;;;;;;;;;4973163;28;20572;-82
2023/08/01 12:36:11;;;;;;;22.58;11.90;;;;;;;;;;4952111;28;20516;-80
2023/08/01 12:38:43;;;;;;;20.58;11.60;;;;;;;;;;4955578;28;20053;-83
2023/08/01 12:41:17;;;;;;;21.48;9.73;;;;;;;;;;4974704;28;20039;-80
2023/08/01 12:43:47;;;;;;;21.92;9.68;;;;;;;;;;4952211;28;20074;-83
2023/08/01 12:46:18;;;;;;;22.30;9.32;;;;;;;;;;4974503;28;20062;-82
2023/08/01 12:48:49;;;;;;;14.55;8.43;;;;;;;;;;4969583;28;20042;-83
2023/08/01 12:51:20;;;;;;;17.35;8.82;;;;;;;;;;4975223;28;20428;-82
2023/08/01 12:53:50;;;;;;;17.77;8.85;;;;;;;;;;4974374;28;20050;-81
2023/08/01 12:56:20;;;;;;;21.25;8.13;;;;;;;;;;4974350;28;20046;-81
2023/08/01 12:58:50;;;;;;;21.23;8.15;;;;;;;;;;4956241;28;20055;-82
2023/08/01 13:01:23;;;;;;;22.08;7.45;;;;;;;;;;4974414;28;20049;-81
2023/08/01 13:03:54;;;;;;;21.92;8.02;;;;;;;;;;4974720;28;20047;-81
2023/08/01 13:06:24;;;;;;;16.67;7.60;;;;;;;;;;4974587;28;20110;-83
2023/08/01 13:08:55;;;;;;;16.25;7.47;;;;;;;;;;4957526;28;20069;-83
2023/08/01 13:11:26;;;;;;;16.52;7.18;;;;;;;;;;4974581;28;20520;-82
2023/08/01 13:13:58;;;;;;;14.82;6.90;;;;;;;;;;4973958;28;20042;-81
2023/08/01 13:16:30;;;;;;;13.57;6.43;;;;;;;;;;4973211;28;20054;-81
2023/08/01 13:19:06;;;;;;;17.23;7.10;;;;;;;;;;4974103;28;20391;-82
2023/08/01 13:21:37;;;;;;;16.90;6.97;;;;;;;;;;4973201;28;20057;-81
2023/08/01 13:24:12;;;;;;;13.02;6.22;;;;;;;;;;4974118;28;20043;-83
2023/08/01 13:26:43;;;;;;;12.52;6.38;;;;;;;;;;4966641;28;20054;-82
2023/08/01 13:29:14;;;;;;;7.07;3.95;;;;;;;;;;4964365;28;20477;-84
2023/08/01 13:31:46;;;;;;;13.80;4.00;;;;;;;;;;4954015;29;20055;-82
2023/08/01 13:34:22;;;;;;;8.20;3.70;;;;;;;;;;4955439;28;20058;-82
2023/08/01 13:36:53;;;;;;;5.70;3.05;;;;;;;;;;4971677;28;20524;-84
2023/08/01 13:39:25;;;;;;;5.97;3.15;;;;;;;;;;4972089;28;20066;-84
2023/08/01 13:42:01;;;;;;;4.70;2.53;;;;;;;;;;4973233;28;20624;-82
2023/08/01 13:44:34;;;;;;;7.75;2.90;;;;;;;;;;4972463;28;20497;-83
2023/08/01 13:47:05;;;;;;;7.40;2.95;;;;;;;;;;4955604;28;20046;-82
2023/08/01 13:49:35;;;;;;;5.75;2.75;;;;;;;;;;4972245;28;20039;-80
2023/08/01 13:52:08;;;;;;;6.45;3.10;;;;;;;;;;4973350;28;20050;-82
2023/08/01 13:54:40;;;;;;;5.55;3.38;;;;;;;;;;4955490;28;20425;-80
2023/08/01 13:57:10;;;;;;;;;;;;;;;;;;4973606;28;20039;-79
2023/08/01 13:59:41;;;;;;;4.97;2.40;;;;;;;;;;4973138;28;20376;-81
2023/08/01 14:02:14;;;;;;;7.07;3.05;;;;;;;;;;4954841;28;20054;-82
2023/08/01 14:04:47;;;;;;;6.05;2.63;;;;;;;;;;4968119;28;20055;-80
2023/08/01 14:07:21;;;;;;;4.50;2.53;;;;;;;;;;4972986;28;20069;-80
2023/08/01 14:09:53;;;;;;;5.75;2.80;;;;;;;;;;4972484;28;20043;-80
2023/08/01 14:12:24;;;;;;;4.45;2.40;;;;;;;;;;4947672;28;20058;-81
2023/08/01 14:14:55;;;;;;;7.20;2.92;;;;;;;;;;4973330;28;20058;-81
2023/08/01 14:17:25;;;;;;;7.80;2.72;;;;;;;;;;4973460;28;20394;-80
2023/08/01 14:19:57;;;;;;;4.63;2.60;;;;;;;;;;4972522;28;20054;-78
2023/08/01 14:22:28;;;;;;;5.38;2.58;;;;;;;;;;4973573;28;20479;-81
2023/08/01 14:24:58;;;;;;;5.97;2.75;;;;;;;;;;4973693;28;20050;-82
2023/08/01 14:27:30;;;;;;;4.55;2.45;;;;;;;;;;4957715;28;20523;-80
2023/08/01 14:30:02;;;;;;;4.78;2.75;;;;;;;;;;4976837;28;20070;-80
2023/08/01 14:32:37;;;;;;;5.90;2.80;;;;;;;;;;4977724;28;20069;-80
2023/08/01 14:35:11;;;;;;;4.70;2.97;;;;;;;;;;4976821;28;20038;-80
2023/08/01 14:37:48;;;;;;;5.25;3.45;;;;;;;;;;4977891;28;20397;-81
2023/08/01 14:40:18;;;;;;;5.93;2.90;;;;;;;;;;4978244;28;20245;-78
2023/08/01 14:42:52;;;;;;;4.80;2.60;;;;;;;;;;4978565;28;20058;-79
2023/08/01 14:45:23;;;;;;;5.00;2.80;;;;;;;;;;4978766;28;20047;-82
2023/08/01 14:47:54;;;;;;;;;;;;;;;;;;4977396;28;20061;-80
2023/08/01 14:50:25;;;;;;;5.30;2.72;;;;;;;;;;4977764;28;20285;-80
2023/08/01 14:52:54;;;;;;;6.05;2.63;;;;;;;;;;4971919;28;20050;-81
2023/08/01 14:55:26;;;;;;;6.60;2.97;;;;;;;;;;4976598;28;20043;-81
2023/08/01 14:57:56;;;;;;;4.75;2.50;;;;;;;;;;4977205;28;20043;-81
2023/08/01 15:00:26;;;;;;;5.53;3.08;;;;;;;;;;4977228;28;20051;-81
2023/08/01 15:02:56;;;;;;;7.18;2.50;;;;;;;;;;4976748;28;20066;-81
2023/08/01 15:05:27;;;;;;;4.80;2.63;;;;;;;;;;4976049;28;20057;-80
2023/08/01 15:08:00;;;;;;;5.78;2.65;;;;;;;;;;4959550;28;20046;-82
2023/08/01 15:10:31;;;;;;;5.90;2.60;;;;;;;;;;4971282;28;20046;-80
2023/08/01 15:13:09;;;;;;;4.47;2.50;;;;;;;;;;4976429;28;20046;-80
2023/08/01 15:15:43;;;;;;;6.15;2.53;;;;;;;;;;4959044;28;20051;-80
2023/08/01 15:18:14;;;;;;;6.43;2.28;;;;;;;;;;4976274;28;20066;-79
2023/08/01 15:20:50;;;;;;;4.95;2.45;;;;;;;;;;4976519;28;20054;-80
2023/08/01 15:23:21;;;;;;;5.80;2.38;;;;;;;;;;4976672;28;20054;-80
2023/08/01 15:25:56;;;;;;;4.43;2.28;;;;;;;;;;4976623;28;20042;-81
2023/08/01 15:28:29;;;;;;;4.68;2.47;;;;;;;;;;4976076;28;20057;-81
2023/08/01 15:31:04;;;;;;;8.30;2.58;;;;;;;;;;4957059;29;20120;-82
2023/08/01 15:33:38;;;;;;;7.13;2.15;;;;;;;;;;4957409;29;20047;-80
2023/08/01 15:36:11;;;;;;;3.35;1.83;;;;;;;;;;4955979;29;20043;-82
2023/08/01 15:38:42;;;;;;;4.82;2.25;;;;;;;;;;4956798;29;20106;-79
2023/08/01 15:41:16;;;;;;;4.43;2.03;;;;;;;;;;4956573;29;20051;-81
2023/08/01 15:43:49;;;;;;;3.97;2.03;;;;;;;;;;4940540;29;20077;-81
2023/08/01 15:46:19;;;;;;;7.60;3.17;;;;;;;;;;4940271;29;20135;-80
2023/08/01 15:48:50;;;;;;;4.85;2.50;;;;;;;;;;4956839;29;20051;-81
2023/08/01 15:51:20;;;;;;;3.75;2.50;;;;;;;;;;4956535;29;20382;-81
2023/08/01 15:53:51;;;;;;;3.63;1.90;;;;;;;;;;4956999;29;20047;-80
2023/08/01 15:56:24;;;;;;;4.93;2.72;;;;;;;;;;4956979;29;20505;-81
2023/08/01 15:58:54;;;;;;;6.13;2.65;;;;;;;;;;4939570;29;20054;-81
2023/08/01 16:01:25;;;;;;;5.07;2.47;;;;;;;;;;4957075;29;20486;-82
2023/08/01 16:03:57;;;;;;;7.28;2.00;;;;;;;;;;4964107;28;20050;-81
2023/08/01 16:06:30;;;;;;;5.90;1.98;;;;;;;;;;4974299;28;20054;-81
2023/08/01 16:09:00;;;;;;;;;;;;;;;;;;4958689;28;20066;-82
2023/08/01 16:11:30;;;;;;;5.70;1.92;;;;;;;;;;4958657;28;19933;-81
2023/08/01 16:14:01;;;;;;;4.38;1.88;;;;;;;;;;4975387;28;20043;-80
2023/08/01 16:16:31;;;;;;;5.03;2.35;;;;;;;;;;4974988;28;20425;-79
2023/08/01 16:19:05;;;;;;;3.42;1.92;;;;;;;;;;4967623;28;20398;-81
2023/08/01 16:21:36;;;;;;;4.68;2.03;;;;;;;;;;4957419;28;20057;-80
2023/08/01 16:24:08;;;;;;;3.97;2.17;;;;;;;;;;4957468;28;20063;-81
2023/08/01 16:26:39;;;;;;;3.70;1.85;;;;;;;;;;4974145;28;20051;-82
2023/08/01 16:29:09;;;;;;;4.22;2.15;;;;;;;;;;4974539;28;20417;-81
2023/08/01 16:31:40;;;;;;;4.10;2.10;;;;;;;;;;4975655;28;20410;-81
2023/08/01 16:34:12;;;;;;;3.20;2.00;;;;;;;;;;4974897;28;20058;-81
2023/08/01 16:36:46;;;;;;;5.00;2.20;;;;;;;;;;4967452;28;20497;-80
2023/08/01 16:39:18;;;;;;;4.40;1.95;;;;;;;;;;4974554;28;20046;-81
2023/08/01 16:41:47;;;;;;;4.65;2.03;;;;;;;;;;4974981;28;20053;-81
2023/08/01 16:44:18;;;;;;;3.47;2.13;;;;;;;;;;4975170;28;20054;-80
2023/08/01 16:46:50;;;;;;;4.05;1.80;;;;;;;;;;4975371;28;20110;-80
2023/08/01 16:49:21;;;;;;;3.30;1.92;;;;;;;;;;4975076;28;20051;-82
2023/08/01 16:51:52;;;;;;;5.32;2.45;;;;;;;;;;4974157;28;20050;-82
2023/08/01 16:54:23;;;;;;;5.68;1.95;;;;;;;;;;4975423;28;20405;-80
2023/08/01 16:56:55;;;;;;;4.60;1.67;;;;;;;;;;4974793;28;20043;-81
2023/08/01 16:59:27;;;;;;;2.88;1.60;;;;;;;;;;4974863;28;20055;-81
2023/08/01 17:01:59;;;;;;;3.75;1.85;;;;;;;;;;4974858;28;20059;-80
2023/08/01 17:04:29;;;;;;;3.80;1.60;;;;;;;;;;4956588;28;20402;-81
2023/08/01 17:07:03;;;;;;;4.15;1.83;;;;;;;;;;4973323;28;20050;-83
2023/08/01 17:09:35;;;;;;;5.40;1.73;;;;;;;;;;4974069;28;20051;-81
2023/08/01 17:12:07;;;;;;;7.55;1.90;;;;;;;;;;4973156;28;20077;-81
2023/08/01 17:14:37;;;;;;;3.85;1.70;;;;;;;;;;4972316;28;20424;-81
2023/08/01 17:17:07;;;;;;;9.00;2.05;;;;;;;;;;4974198;28;20069;-81
2023/08/01 17:19:39;;;;;;;5.72;1.95;;;;;;;;;;4974931;28;20073;-81
2023/08/01 17:22:09;;;;;;;3.35;1.70;;;;;;;;;;4974850;28;20059;-81
2023/08/01 17:24:41;;;;;;;3.13;1.75;;;;;;;;;;4974377;28;20485;-82
2023/08/01 17:27:14;;;;;;;;;;;;;;;;;;4974263;28;20375;-80
2023/08/01 17:29:44;;;;;;;;;;;;;;;;;;4974432;28;19929;-79
2023/08/01 17:32:14;;;;;;;3.20;1.50;;;;;;;;;;4974324;28;20000;-80
2023/08/01 17:34:44;;;;;;;3.63;1.80;;;;;;;;;;4974294;28;20058;-81
2023/08/01 17:37:14;;;;;;;3.88;1.98;;;;;;;;;;4974171;28;20047;-84
2023/08/01 17:39:45;;;;;;;3.35;1.90;;;;;;;;;;4955712;28;20394;-79
2023/08/01 17:42:18;;;;;;;7.80;2.03;;;;;;;;;;4956191;28;20061;-84
2023/08/01 17:44:50;;;;;;;5.60;1.90;;;;;;;;;;4974048;28;20047;-81
2023/08/01 17:47:24;;;;;;;4.68;2.10;;;;;;;;;;4973783;28;20051;-83
2023/08/01 17:49:55;;;;;;;3.80;1.70;;;;;;;;;;4974187;28;20062;-82
2023/08/01 17:52:29;;;;;;;3.35;1.63;;;;;;;;;;4973794;28;20387;-79
2023/08/01 17:55:00;;;;;;;4.28;1.83;;;;;;;;;;4974163;28;20054;-81
2023/08/01 17:57:30;;;;;;;4.43;1.73;;;;;;;;;;4987252;28;20054;-79
2023/08/01 18:00:04;;;;;;;4.25;1.83;;;;;;;;;;4971894;28;20065;-79
2023/08/01 18:02:38;;;;;;;4.80;2.20;;;;;;;;;;4973827;28;20047;-78
2023/08/01 18:05:09;;;;;;;4.55;2.17;;;;;;;;;;4973952;28;20530;-79
2023/08/01 18:07:41;;;;;;;4.22;1.70;;;;;;;;;;4973677;28;20054;-81
2023/08/01 18:10:12;;;;;;;5.75;2.25;;;;;;;;;;4973649;28;20065;-79
2023/08/01 18:12:49;;;;;;;2.60;1.63;;;;;;;;;;4972457;28;20039;-81
2023/08/01 18:15:21;;;;;;;3.83;2.22;;;;;;;;;;4956729;28;20055;-78
2023/08/01 18:17:51;;;;;;;5.05;1.95;;;;;;;;;;4973649;28;20485;-80
2023/08/01 18:20:24;;;;;;;6.20;2.22;;;;;;;;;;4971815;28;20066;-78
2023/08/01 18:22:55;;;;;;;6.45;2.13;;;;;;;;;;4956161;28;20051;-79
2023/08/01 18:25:25;;;;;;;3.75;1.98;;;;;;;;;;4987589;28;20363;-79
2023/08/01 18:27:56;;;;;;;3.55;2.28;;;;;;;;;;4971497;28;20050;-81
2023/08/01 18:30:32;;;;;;;5.28;2.20;;;;;;;;;;4973447;28;20038;-82
2023/08/01 18:33:03;;;;;;;6.38;2.20;;;;;;;;;;4973474;28;20043;-82
2023/08/01 18:35:39;;;;;;;4.50;2.13;;;;;;;;;;4955640;28;20055;-82
2023/08/01 18:38:12;;;;;;;5.82;2.38;;;;;;;;;;4972883;28;20047;-81
2023/08/01 18:40:45;;;;;;;6.45;2.58;;;;;;;;;;4973194;28;20409;-80
2023/08/01 18:43:16;;;;;;;3.30;2.17;;;;;;;;;;4973810;28;20370;-79
2023/08/01 18:45:54;;;;;;;;;;;;;;;;;;4973764;28;20051;-80
2023/08/01 18:48:24;;;;;;;4.70;2.10;;;;;;;;;;4972952;28;19922;-84
2023/08/01 18:50:56;;;;;;;4.57;2.25;;;;;;;;;;4955957;28;20058;-81
2023/08/01 18:53:30;;;;;;;3.85;1.88;;;;;;;;;;4973837;28;20043;-82
2023/08/01 18:56:12;;;;;;;5.15;1.95;;;;;;;;;;4974377;28;20049;-81
2023/08/01 18:58:42;;;;;;;4.10;2.22;;;;;;;;;;4956632;28;20054;-81
2023/08/01 19:01:23;;;;;;;3.15;1.90;;;;;;;;;;4974664;28;20059;-82
2023/08/01 19:04:01;;;;;;;4.97;1.90;;;;;;;;;;4974633;28;20043;-83
2023/08/01 19:06:32;;;;;;;2.65;1.60;;;;;;;;;;4973862;28;20062;-80
2023/08/01 19:09:04;;;;;;;3.90;1.90;;;;;;;;;;4972795;28;20501;-81
2023/08/01 19:11:50;;;;;;;7.28;2.08;;;;;;;;;;4973215;28;20051;-81
2023/08/01 19:14:23;;;;;;;6.72;1.98;;;;;;;;;;4972213;28;20150;-82